Allison, Illinois
Current Conditions -  °F | °C
As of 8:53 AM on Wednesday 26 Nov 2014 (Local Time) from KLWV Reporting Station
Haze Haze  
Wind Chill: -5°   Ceiling: Unl
Heat Index: -2°   Visibility: 5mi
Dew Point: -3°   Wind: 6mph
Humidity: 89%   Direction: 70°ENE
Pressure: 30.16"   Gusts: NA
Location:  38.7501°N, 87.6141°W
Report Text: KLWV 261453Z AUTO 07005KT 5SM BR CLR M02/M03 A3016 RMK AO2 SLP215 I3000 T10171033 58001
Loading
Personal Weather Stations






























Interactive Weather Map New forecast layout! Learn more

10-Day Weather Forecast

Advertisements
Track Severe Weather on mobile